sensor_id;sensor_type;location;lat;lon;timestamp;pressure;altitude;pressure_sealevel;temperature;humidity
69153;BME280;56261;51.580;4.578;2023-04-12T00:02:02;100485.81;;;8.51;100.00
69153;BME280;56261;51.580;4.578;2023-04-12T00:04:29;100476.16;;;8.50;100.00
69153;BME280;56261;51.580;4.578;2023-04-12T00:06:54;100472.34;;;8.52;100.00
69153;BME280;56261;51.580;4.578;2023-04-12T00:09:20;100460.72;;;8.62;100.00
69153;BME280;56261;51.580;4.578;2023-04-12T00:11:46;100447.59;;;8.60;100.00
69153;BME280;56261;51.580;4.578;2023-04-12T00:14:11;100441.78;;;8.57;100.00
69153;BME280;56261;51.580;4.578;2023-04-12T00:16:37;100443.94;;;8.61;100.00
69153;BME280;56261;51.580;4.578;2023-04-12T00:19:03;100430.47;;;8.63;100.00
69153;BME280;56261;51.580;4.578;2023-04-12T00:21:29;100430.63;;;8.61;100.00
69153;BME280;56261;51.580;4.578;2023-04-12T00:23:55;100414.53;;;8.63;100.00
69153;BME280;56261;51.580;4.578;2023-04-12T00:26:20;100407.22;;;8.73;100.00
69153;BME280;56261;51.580;4.578;2023-04-12T00:28:46;100384.28;;;8.64;100.00
69153;BME280;56261;51.580;4.578;2023-04-12T00:31:12;100383.28;;;8.65;100.00
69153;BME280;56261;51.580;4.578;2023-04-12T00:33:38;100382.75;;;8.86;100.00
69153;BME280;56261;51.580;4.578;2023-04-12T00:36:03;100379.41;;;8.84;100.00
69153;BME280;56261;51.580;4.578;2023-04-12T00:38:29;100381.72;;;8.95;100.00
69153;BME280;56261;51.580;4.578;2023-04-12T00:40:54;100354.66;;;8.91;100.00
69153;BME280;56261;51.580;4.578;2023-04-12T00:43:20;100351.84;;;8.77;100.00
69153;BME280;56261;51.580;4.578;2023-04-12T00:45:45;100348.38;;;8.76;100.00
69153;BME280;56261;51.580;4.578;2023-04-12T00:48:12;100333.25;;;8.77;100.00
69153;BME280;56261;51.580;4.578;2023-04-12T00:50:38;100322.91;;;8.82;100.00
69153;BME280;56261;51.580;4.578;2023-04-12T00:53:06;100318.75;;;8.96;100.00
69153;BME280;56261;51.580;4.578;2023-04-12T00:55:34;100298.84;;;8.75;100.00
69153;BME280;56261;51.580;4.578;2023-04-12T00:58:00;100311.34;;;8.66;100.00
69153;BME280;56261;51.580;4.578;2023-04-12T01:00:25;100311.16;;;8.68;100.00
69153;BME280;56261;51.580;4.578;2023-04-12T01:02:51;100298.66;;;8.85;100.00
69153;BME280;56261;51.580;4.578;2023-04-12T01:05:20;100297.88;;;8.68;100.00
69153;BME280;56261;51.580;4.578;2023-04-12T01:08:04;100295.56;;;8.73;100.00
69153;BME280;56261;51.580;4.578;2023-04-12T01:10:43;100285.06;;;8.80;100.00
69153;BME280;56261;51.580;4.578;2023-04-12T01:16:12;100268.59;;;8.76;100.00
69153;BME280;56261;51.580;4.578;2023-04-12T01:18:41;100261.75;;;8.82;100.00
69153;BME280;56261;51.580;4.578;2023-04-12T01:21:13;100252.31;;;8.79;100.00
69153;BME280;56261;51.580;4.578;2023-04-12T01:27:00;100236.34;;;8.79;100.00
69153;BME280;56261;51.580;4.578;2023-04-12T01:29:28;100233.69;;;8.79;100.00
69153;BME280;56261;51.580;4.578;2023-04-12T01:31:59;100216.78;;;8.72;100.00
69153;BME280;56261;51.580;4.578;2023-04-12T01:34:28;100212.47;;;8.71;100.00
69153;BME280;56261;51.580;4.578;2023-04-12T01:36:54;100204.44;;;8.79;100.00
69153;BME280;56261;51.580;4.578;2023-04-12T01:39:21;100207.47;;;8.76;100.00
69153;BME280;56261;51.580;4.578;2023-04-12T01:41:47;100202.78;;;8.78;100.00
69153;BME280;56261;51.580;4.578;2023-04-12T01:44:16;100192.63;;;8.82;100.00
69153;BME280;56261;51.580;4.578;2023-04-12T01:46:43;100170.72;;;8.80;100.00
69153;BME280;56261;51.580;4.578;2023-04-12T01:49:11;100164.22;;;8.82;100.00
69153;BME280;56261;51.580;4.578;2023-04-12T01:54:12;100147.91;;;8.85;100.00
69153;BME280;56261;51.580;4.578;2023-04-12T01:56:45;100134.97;;;8.82;100.00
69153;BME280;56261;51.580;4.578;2023-04-12T01:59:13;100158.41;;;8.79;100.00
69153;BME280;56261;51.580;4.578;2023-04-12T02:01:40;100142.31;;;8.80;100.00
69153;BME280;56261;51.580;4.578;2023-04-12T02:04:07;100137.28;;;8.85;100.00
69153;BME280;56261;51.580;4.578;2023-04-12T02:06:33;100120.78;;;8.90;100.00
69153;BME280;56261;51.580;4.578;2023-04-12T02:09:01;100111.34;;;8.87;100.00
69153;BME280;56261;51.580;4.578;2023-04-12T02:11:27;100102.34;;;8.88;100.00
69153;BME280;56261;51.580;4.578;2023-04-12T02:13:53;100103.94;;;8.75;100.00
69153;BME280;56261;51.580;4.578;2023-04-12T02:16:19;100104.53;;;8.85;100.00
69153;BME280;56261;51.580;4.578;2023-04-12T02:18:45;100112.00;;;8.89;100.00
69153;BME280;56261;51.580;4.578;2023-04-12T02:21:11;100101.34;;;8.89;100.00
69153;BME280;56261;51.580;4.578;2023-04-12T02:23:37;100094.31;;;8.73;100.00
69153;BME280;56261;51.580;4.578;2023-04-12T02:26:02;100087.41;;;8.64;100.00
69153;BME280;56261;51.580;4.578;2023-04-12T02:28:28;100079.69;;;8.78;100.00
69153;BME280;56261;51.580;4.578;2023-04-12T02:30:53;100077.84;;;8.78;100.00
69153;BME280;56261;51.580;4.578;2023-04-12T02:33:18;100068.19;;;8.77;100.00
69153;BME280;56261;51.580;4.578;2023-04-12T02:35:50;100070.72;;;8.70;100.00
69153;BME280;56261;51.580;4.578;2023-04-12T02:38:15;100059.22;;;8.78;100.00
69153;BME280;56261;51.580;4.578;2023-04-12T02:40:40;100053.13;;;8.69;100.00
69153;BME280;56261;51.580;4.578;2023-04-12T02:43:06;100052.31;;;8.69;100.00
69153;BME280;56261;51.580;4.578;2023-04-12T02:45:32;100044.66;;;8.66;100.00
69153;BME280;56261;51.580;4.578;2023-04-12T02:47:57;100042.66;;;8.68;100.00
69153;BME280;56261;51.580;4.578;2023-04-12T02:50:22;100038.66;;;8.72;100.00
69153;BME280;56261;51.580;4.578;2023-04-12T02:52:48;100035.47;;;8.77;100.00
69153;BME280;56261;51.580;4.578;2023-04-12T02:55:13;100020.69;;;8.74;100.00
69153;BME280;56261;51.580;4.578;2023-04-12T02:57:39;100023.25;;;8.67;100.00
69153;BME280;56261;51.580;4.578;2023-04-12T03:00:05;100009.53;;;8.79;100.00
69153;BME280;56261;51.580;4.578;2023-04-12T03:02:36;100011.97;;;8.65;100.00
69153;BME280;56261;51.580;4.578;2023-04-12T03:05:02;100012.88;;;8.72;100.00
69153;BME280;56261;51.580;4.578;2023-04-12T03:07:27;100005.00;;;8.64;100.00
69153;BME280;56261;51.580;4.578;2023-04-12T03:09:54;99998.28;;;8.68;100.00
69153;BME280;56261;51.580;4.578;2023-04-12T03:12:20;99996.50;;;8.69;100.00
69153;BME280;56261;51.580;4.578;2023-04-12T03:14:45;99993.84;;;8.69;100.00
69153;BME280;56261;51.580;4.578;2023-04-12T03:17:10;99992.09;;;8.76;100.00
69153;BME280;56261;51.580;4.578;2023-04-12T03:19:36;99988.16;;;8.72;100.00
69153;BME280;56261;51.580;4.578;2023-04-12T03:22:02;99979.41;;;8.63;100.00
69153;BME280;56261;51.580;4.578;2023-04-12T03:24:28;99975.34;;;8.76;100.00
69153;BME280;56261;51.580;4.578;2023-04-12T03:26:58;99969.91;;;8.69;100.00
69153;BME280;56261;51.580;4.578;2023-04-12T03:29:23;99965.56;;;8.68;100.00
69153;BME280;56261;51.580;4.578;2023-04-12T03:31:48;99965.53;;;8.76;100.00
69153;BME280;56261;51.580;4.578;2023-04-12T03:34:14;99958.53;;;8.75;100.00
69153;BME280;56261;51.580;4.578;2023-04-12T03:36:39;99949.94;;;8.73;100.00
69153;BME280;56261;51.580;4.578;2023-04-12T03:39:05;99948.63;;;8.69;100.00
69153;BME280;56261;51.580;4.578;2023-04-12T03:41:31;99940.00;;;8.67;100.00
69153;BME280;56261;51.580;4.578;2023-04-12T03:43:56;99941.59;;;8.76;100.00
69153;BME280;56261;51.580;4.578;2023-04-12T03:46:21;99925.63;;;8.76;100.00
69153;BME280;56261;51.580;4.578;2023-04-12T03:48:48;99931.59;;;8.78;100.00
69153;BME280;56261;51.580;4.578;2023-04-12T03:51:13;99929.88;;;8.85;100.00
69153;BME280;56261;51.580;4.578;2023-04-12T03:53:40;99920.16;;;8.92;100.00
69153;BME280;56261;51.580;4.578;2023-04-12T03:56:06;99919.50;;;8.90;100.00
69153;BME280;56261;51.580;4.578;2023-04-12T03:58:32;99906.03;;;8.92;100.00
69153;BME280;56261;51.580;4.578;2023-04-12T04:01:03;99905.66;;;8.95;100.00
69153;BME280;56261;51.580;4.578;2023-04-12T04:03:31;99903.22;;;8.93;100.00
69153;BME280;56261;51.580;4.578;2023-04-12T04:06:02;99905.50;;;8.97;100.00
69153;BME280;56261;51.580;4.578;2023-04-12T04:08:28;99912.56;;;8.89;100.00
69153;BME280;56261;51.580;4.578;2023-04-12T04:10:55;99909.72;;;8.91;100.00
69153;BME280;56261;51.580;4.578;2023-04-12T04:13:20;99905.22;;;8.91;100.00
69153;BME280;56261;51.580;4.578;2023-04-12T04:15:49;99908.97;;;8.82;100.00
69153;BME280;56261;51.580;4.578;2023-04-12T04:18:15;99906.22;;;8.90;100.00
69153;BME280;56261;51.580;4.578;2023-04-12T04:20:40;99915.22;;;8.89;100.00
69153;BME280;56261;51.580;4.578;2023-04-12T04:23:06;99910.88;;;8.88;100.00
69153;BME280;56261;51.580;4.578;2023-04-12T04:25:34;99906.31;;;9.12;100.00
69153;BME280;56261;51.580;4.578;2023-04-12T04:28:04;99901.66;;;9.14;100.00
69153;BME280;56261;51.580;4.578;2023-04-12T04:30:30;99899.00;;;9.14;100.00
69153;BME280;56261;51.580;4.578;2023-04-12T04:32:58;99888.63;;;9.19;100.00
69153;BME280;56261;51.580;4.578;2023-04-12T04:35:23;99906.25;;;9.20;100.00
69153;BME280;56261;51.580;4.578;2023-04-12T04:37:49;99893.94;;;9.19;100.00
69153;BME280;56261;51.580;4.578;2023-04-12T04:40:17;99899.09;;;9.21;100.00
69153;BME280;56261;51.580;4.578;2023-04-12T04:42:45;99896.59;;;9.19;100.00
69153;BME280;56261;51.580;4.578;2023-04-12T04:45:10;99899.72;;;9.23;100.00
69153;BME280;56261;51.580;4.578;2023-04-12T04:47:39;99890.16;;;9.28;100.00
69153;BME280;56261;51.580;4.578;2023-04-12T04:50:05;99905.22;;;9.21;100.00
69153;BME280;56261;51.580;4.578;2023-04-12T04:52:31;99886.31;;;9.31;100.00
69153;BME280;56261;51.580;4.578;2023-04-12T04:54:57;99908.16;;;9.26;100.00
69153;BME280;56261;51.580;4.578;2023-04-12T04:57:23;99916.03;;;9.34;100.00
69153;BME280;56261;51.580;4.578;2023-04-12T04:59:48;99915.22;;;9.34;100.00
69153;BME280;56261;51.580;4.578;2023-04-12T05:02:14;99924.66;;;9.37;100.00
69153;BME280;56261;51.580;4.578;2023-04-12T05:04:40;99917.41;;;9.30;100.00
69153;BME280;56261;51.580;4.578;2023-04-12T05:07:06;99911.38;;;9.37;100.00
69153;BME280;56261;51.580;4.578;2023-04-12T05:09:31;99913.94;;;9.30;100.00
69153;BME280;56261;51.580;4.578;2023-04-12T05:11:57;99910.91;;;9.33;100.00
69153;BME280;56261;51.580;4.578;2023-04-12T05:14:22;99900.91;;;9.35;100.00
69153;BME280;56261;51.580;4.578;2023-04-12T05:16:47;99900.34;;;9.40;100.00
69153;BME280;56261;51.580;4.578;2023-04-12T05:19:13;99900.06;;;9.34;100.00
69153;BME280;56261;51.580;4.578;2023-04-12T05:21:38;99902.56;;;9.36;100.00
69153;BME280;56261;51.580;4.578;2023-04-12T05:24:04;99904.50;;;9.27;100.00
69153;BME280;56261;51.580;4.578;2023-04-12T05:26:29;99900.88;;;9.50;100.00
69153;BME280;56261;51.580;4.578;2023-04-12T05:28:54;99900.06;;;9.49;100.00
69153;BME280;56261;51.580;4.578;2023-04-12T05:31:20;99908.06;;;9.49;100.00
69153;BME280;56261;51.580;4.578;2023-04-12T05:33:46;99917.19;;;9.62;100.00
69153;BME280;56261;51.580;4.578;2023-04-12T05:36:12;99911.84;;;9.40;100.00
69153;BME280;56261;51.580;4.578;2023-04-12T05:38:37;99909.34;;;9.53;100.00
69153;BME280;56261;51.580;4.578;2023-04-12T05:41:03;99906.63;;;9.68;100.00
69153;BME280;56261;51.580;4.578;2023-04-12T05:43:29;99897.25;;;9.72;100.00
69153;BME280;56261;51.580;4.578;2023-04-12T05:45:55;99903.69;;;9.78;100.00
69153;BME280;56261;51.580;4.578;2023-04-12T05:48:20;99901.16;;;9.91;100.00
69153;BME280;56261;51.580;4.578;2023-04-12T05:50:52;99904.91;;;9.97;100.00
69153;BME280;56261;51.580;4.578;2023-04-12T05:53:19;99900.69;;;10.03;100.00
69153;BME280;56261;51.580;4.578;2023-04-12T05:55:45;99892.94;;;10.08;100.00
69153;BME280;56261;51.580;4.578;2023-04-12T05:58:10;99892.84;;;10.01;100.00
69153;BME280;56261;51.580;4.578;2023-04-12T06:00:37;99907.59;;;9.82;100.00
69153;BME280;56261;51.580;4.578;2023-04-12T06:03:03;99900.72;;;9.88;100.00
69153;BME280;56261;51.580;4.578;2023-04-12T06:05:28;99899.25;;;10.07;100.00
69153;BME280;56261;51.580;4.578;2023-04-12T06:07:54;99900.69;;;10.03;100.00
69153;BME280;56261;51.580;4.578;2023-04-12T06:10:19;99894.63;;;9.94;100.00
69153;BME280;56261;51.580;4.578;2023-04-12T06:12:46;99902.25;;;9.97;100.00
69153;BME280;56261;51.580;4.578;2023-04-12T06:15:11;99900.22;;;10.21;100.00
69153;BME280;56261;51.580;4.578;2023-04-12T06:17:37;99898.44;;;10.06;100.00
69153;BME280;56261;51.580;4.578;2023-04-12T06:20:03;99887.59;;;10.08;100.00
69153;BME280;56261;51.580;4.578;2023-04-12T06:22:33;99894.06;;;10.20;100.00
69153;BME280;56261;51.580;4.578;2023-04-12T06:24:58;99894.72;;;10.01;100.00
69153;BME280;56261;51.580;4.578;2023-04-12T06:27:24;99900.22;;;10.21;100.00
69153;BME280;56261;51.580;4.578;2023-04-12T06:29:50;99901.81;;;10.15;100.00
69153;BME280;56261;51.580;4.578;2023-04-12T06:32:16;99902.72;;;10.44;100.00
69153;BME280;56261;51.580;4.578;2023-04-12T06:34:41;99897.91;;;10.32;100.00
69153;BME280;56261;51.580;4.578;2023-04-12T06:37:07;99896.25;;;10.31;100.00
69153;BME280;56261;51.580;4.578;2023-04-12T06:39:32;99907.94;;;10.15;100.00
69153;BME280;56261;51.580;4.578;2023-04-12T06:41:58;99911.53;;;10.23;100.00
69153;BME280;56261;51.580;4.578;2023-04-12T06:44:23;99905.28;;;9.94;100.00
69153;BME280;56261;51.580;4.578;2023-04-12T06:46:51;99907.84;;;10.24;100.00
69153;BME280;56261;51.580;4.578;2023-04-12T06:49:16;99903.41;;;10.31;100.00
69153;BME280;56261;51.580;4.578;2023-04-12T06:51:42;99902.31;;;10.25;100.00
69153;BME280;56261;51.580;4.578;2023-04-12T06:54:08;99899.38;;;10.20;100.00
69153;BME280;56261;51.580;4.578;2023-04-12T06:56:35;99896.94;;;10.18;100.00
69153;BME280;56261;51.580;4.578;2023-04-12T06:59:01;99896.53;;;10.22;100.00
69153;BME280;56261;51.580;4.578;2023-04-12T07:01:26;99893.31;;;10.26;100.00
69153;BME280;56261;51.580;4.578;2023-04-12T07:03:52;99888.19;;;10.46;100.00
69153;BME280;56261;51.580;4.578;2023-04-12T07:06:17;99896.78;;;10.27;100.00
69153;BME280;56261;51.580;4.578;2023-04-12T07:08:42;99897.38;;;10.44;100.00
69153;BME280;56261;51.580;4.578;2023-04-12T07:11:08;99905.00;;;10.25;100.00
69153;BME280;56261;51.580;4.578;2023-04-12T07:13:33;99890.59;;;10.41;100.00
69153;BME280;56261;51.580;4.578;2023-04-12T07:15:58;99876.19;;;10.35;100.00
69153;BME280;56261;51.580;4.578;2023-04-12T07:18:25;99889.25;;;10.52;100.00
69153;BME280;56261;51.580;4.578;2023-04-12T07:20:53;99888.69;;;10.35;100.00
69153;BME280;56261;51.580;4.578;2023-04-12T07:23:20;99885.38;;;10.54;100.00
69153;BME280;56261;51.580;4.578;2023-04-12T07:25:45;99869.47;;;10.39;100.00
69153;BME280;56261;51.580;4.578;2023-04-12T07:28:11;99863.59;;;10.51;100.00
69153;BME280;56261;51.580;4.578;2023-04-12T07:30:39;99865.09;;;10.88;100.00
69153;BME280;56261;51.580;4.578;2023-04-12T07:33:05;99870.97;;;10.77;100.00
69153;BME280;56261;51.580;4.578;2023-04-12T07:35:31;99862.03;;;10.91;100.00
69153;BME280;56261;51.580;4.578;2023-04-12T07:37:57;99867.28;;;10.78;100.00
69153;BME280;56261;51.580;4.578;2023-04-12T07:40:23;99851.47;;;10.48;100.00
69153;BME280;56261;51.580;4.578;2023-04-12T07:42:48;99859.03;;;10.73;100.00
69153;BME280;56261;51.580;4.578;2023-04-12T07:45:14;99856.97;;;10.68;100.00
69153;BME280;56261;51.580;4.578;2023-04-12T07:47:39;99873.06;;;10.82;100.00
69153;BME280;56261;51.580;4.578;2023-04-12T07:50:05;99868.00;;;10.93;100.00
69153;BME280;56261;51.580;4.578;2023-04-12T07:52:31;99874.03;;;11.09;100.00
69153;BME280;56261;51.580;4.578;2023-04-12T07:54:56;99879.47;;;10.94;100.00
69153;BME280;56261;51.580;4.578;2023-04-12T07:57:22;99870.34;;;10.75;100.00
69153;BME280;56261;51.580;4.578;2023-04-12T07:59:48;99875.97;;;11.21;100.00
69153;BME280;56261;51.580;4.578;2023-04-12T08:02:13;99879.78;;;11.06;100.00
69153;BME280;56261;51.580;4.578;2023-04-12T08:04:40;99878.66;;;10.93;100.00
69153;BME280;56261;51.580;4.578;2023-04-12T08:07:08;99875.75;;;10.88;100.00
69153;BME280;56261;51.580;4.578;2023-04-12T08:09:33;99879.47;;;10.94;100.00
69153;BME280;56261;51.580;4.578;2023-04-12T08:11:59;99868.06;;;11.07;100.00
69153;BME280;56261;51.580;4.578;2023-04-12T08:14:25;99871.84;;;11.19;100.00
69153;BME280;56261;51.580;4.578;2023-04-12T08:16:51;99871.38;;;11.50;100.00
69153;BME280;56261;51.580;4.578;2023-04-12T08:19:17;99866.09;;;11.70;100.00
69153;BME280;56261;51.580;4.578;2023-04-12T08:21:42;99867.03;;;11.49;100.00
69153;BME280;56261;51.580;4.578;2023-04-12T08:24:08;99865.22;;;11.63;100.00
69153;BME280;56261;51.580;4.578;2023-04-12T08:26:33;99867.63;;;11.45;100.00
69153;BME280;56261;51.580;4.578;2023-04-12T08:28:58;99859.53;;;11.79;100.00
69153;BME280;56261;51.580;4.578;2023-04-12T08:31:24;99870.34;;;12.59;100.00
69153;BME280;56261;51.580;4.578;2023-04-12T08:33:49;99871.78;;;12.55;100.00
69153;BME280;56261;51.580;4.578;2023-04-12T08:36:15;99868.47;;;12.33;100.00
69153;BME280;56261;51.580;4.578;2023-04-12T08:38:40;99857.16;;;12.11;100.00
69153;BME280;56261;51.580;4.578;2023-04-12T08:41:06;99867.22;;;12.16;100.00
69153;BME280;56261;51.580;4.578;2023-04-12T08:43:33;99870.69;;;12.03;100.00
69153;BME280;56261;51.580;4.578;2023-04-12T08:45:59;99879.88;;;11.80;100.00
69153;BME280;56261;51.580;4.578;2023-04-12T08:48:26;99884.59;;;11.78;100.00
69153;BME280;56261;51.580;4.578;2023-04-12T08:50:52;99889.19;;;11.98;100.00
69153;BME280;56261;51.580;4.578;2023-04-12T08:53:18;99882.50;;;11.67;100.00
69153;BME280;56261;51.580;4.578;2023-04-12T08:55:44;99879.22;;;11.72;100.00
69153;BME280;56261;51.580;4.578;2023-04-12T08:58:13;99872.88;;;11.73;100.00
69153;BME280;56261;51.580;4.578;2023-04-12T09:00:40;99881.50;;;11.75;100.00
69153;BME280;56261;51.580;4.578;2023-04-12T09:03:05;99880.47;;;11.69;100.00
69153;BME280;56261;51.580;4.578;2023-04-12T09:05:31;99884.03;;;11.96;100.00
69153;BME280;56261;51.580;4.578;2023-04-12T09:07:57;99876.50;;;12.40;100.00
69153;BME280;56261;51.580;4.578;2023-04-12T09:10:33;99876.31;;;12.41;100.00
69153;BME280;56261;51.580;4.578;2023-04-12T09:12:59;99872.41;;;12.57;100.00
69153;BME280;56261;51.580;4.578;2023-04-12T09:15:25;99861.47;;;12.25;100.00
69153;BME280;56261;51.580;4.578;2023-04-12T09:18:23;99867.22;;;12.16;100.00
69153;BME280;56261;51.580;4.578;2023-04-12T09:20:48;99867.22;;;12.09;100.00
69153;BME280;56261;51.580;4.578;2023-04-12T09:23:18;99857.75;;;11.93;100.00
69153;BME280;56261;51.580;4.578;2023-04-12T09:25:44;99862.06;;;12.14;100.00
69153;BME280;56261;51.580;4.578;2023-04-12T09:28:23;99852.84;;;12.23;100.00
69153;BME280;56261;51.580;4.578;2023-04-12T09:30:51;99853.94;;;13.21;100.00
69153;BME280;56261;51.580;4.578;2023-04-12T09:33:20;99860.50;;;13.25;100.00
69153;BME280;56261;51.580;4.578;2023-04-12T09:35:46;99870.50;;;12.91;100.00
69153;BME280;56261;51.580;4.578;2023-04-12T09:38:13;99870.53;;;12.24;100.00
69153;BME280;56261;51.580;4.578;2023-04-12T09:40:38;99866.19;;;12.37;100.00
69153;BME280;56261;51.580;4.578;2023-04-12T09:43:05;99857.34;;;12.56;100.00
69153;BME280;56261;51.580;4.578;2023-04-12T09:45:33;99867.13;;;13.16;100.00
69153;BME280;56261;51.580;4.578;2023-04-12T09:47:59;99863.13;;;12.73;100.00
69153;BME280;56261;51.580;4.578;2023-04-12T09:50:26;99872.41;;;12.57;100.00
69153;BME280;56261;51.580;4.578;2023-04-12T09:52:53;99875.44;;;12.21;100.00
69153;BME280;56261;51.580;4.578;2023-04-12T09:55:27;99875.25;;;12.56;100.00
69153;BME280;56261;51.580;4.578;2023-04-12T09:57:54;99881.03;;;12.26;100.00
69153;BME280;56261;51.580;4.578;2023-04-12T10:00:22;99871.78;;;12.42;100.00
69153;BME280;56261;51.580;4.578;2023-04-12T10:02:51;99866.81;;;12.65;100.00
69153;BME280;56261;51.580;4.578;2023-04-12T10:05:18;99881.94;;;13.38;100.00
69153;BME280;56261;51.580;4.578;2023-04-12T10:07:45;99873.19;;;13.56;100.00
69153;BME280;56261;51.580;4.578;2023-04-12T10:10:13;99884.88;;;13.03;100.00
69153;BME280;56261;51.580;4.578;2023-04-12T10:12:39;99883.91;;;12.58;100.00
69153;BME280;56261;51.580;4.578;2023-04-12T10:15:07;99889.88;;;12.33;100.00
69153;BME280;56261;51.580;4.578;2023-04-12T10:17:41;99883.91;;;12.38;100.00
69153;BME280;56261;51.580;4.578;2023-04-12T10:20:10;99884.88;;;12.90;100.00
69153;BME280;56261;51.580;4.578;2023-04-12T10:22:44;99883.59;;;13.13;100.00
69153;BME280;56261;51.580;4.578;2023-04-12T10:25:15;99856.25;;;13.04;100.00
69153;BME280;56261;51.580;4.578;2023-04-12T10:27:42;99881.53;;;13.15;100.00
69153;BME280;56261;51.580;4.578;2023-04-12T10:33:33;99890.28;;;12.63;100.00
69153;BME280;56261;51.580;4.578;2023-04-12T10:35:49;99892.94;;;12.57;100.00
69153;BME280;56261;51.580;4.578;2023-04-12T10:38:15;99886.16;;;12.28;100.00
69153;BME280;56261;51.580;4.578;2023-04-12T10:41:11;99891.72;;;12.33;100.00
69153;BME280;56261;51.580;4.578;2023-04-12T10:43:41;99895.44;;;12.65;100.00
69153;BME280;56261;51.580;4.578;2023-04-12T10:46:07;99896.47;;;12.44;100.00
69153;BME280;56261;51.580;4.578;2023-04-12T10:48:37;99897.47;;;12.56;100.00
69153;BME280;56261;51.580;4.578;2023-04-12T10:51:13;99894.19;;;12.41;100.00
69153;BME280;56261;51.580;4.578;2023-04-12T10:53:39;99895.84;;;12.42;100.00
69153;BME280;56261;51.580;4.578;2023-04-12T11:01:22;99893.69;;;13.24;100.00
69153;BME280;56261;51.580;4.578;2023-04-12T11:04:10;99897.91;;;13.58;100.00
69153;BME280;56261;51.580;4.578;2023-04-12T11:11:47;99899.34;;;12.42;100.00
69153;BME280;56261;51.580;4.578;2023-04-12T11:14:16;99901.38;;;12.27;100.00
69153;BME280;56261;51.580;4.578;2023-04-12T11:19:40;99900.34;;;11.60;100.00
69153;BME280;56261;51.580;4.578;2023-04-12T11:22:08;99916.75;;;11.50;100.00
69153;BME280;56261;51.580;4.578;2023-04-12T11:24:37;99918.16;;;11.39;100.00
69153;BME280;56261;51.580;4.578;2023-04-12T11:27:03;99934.41;;;11.10;100.00
69153;BME280;56261;51.580;4.578;2023-04-12T11:29:28;99935.22;;;10.82;100.00
69153;BME280;56261;51.580;4.578;2023-04-12T11:31:57;99931.91;;;10.80;100.00
69153;BME280;56261;51.580;4.578;2023-04-12T11:34:22;99926.19;;;11.11;100.00
69153;BME280;56261;51.580;4.578;2023-04-12T11:36:52;99913.75;;;11.25;100.00
69153;BME280;56261;51.580;4.578;2023-04-12T11:39:18;99911.66;;;11.62;100.00
69153;BME280;56261;51.580;4.578;2023-04-12T11:41:45;99913.53;;;11.68;100.00
69153;BME280;56261;51.580;4.578;2023-04-12T11:44:12;99919.88;;;12.22;100.00
69153;BME280;56261;51.580;4.578;2023-04-12T11:46:38;99925.50;;;11.72;100.00
69153;BME280;56261;51.580;4.578;2023-04-12T11:49:03;99928.56;;;11.76;100.00
69153;BME280;56261;51.580;4.578;2023-04-12T11:51:30;99951.38;;;10.74;100.00
69153;BME280;56261;51.580;4.578;2023-04-12T11:53:57;99960.47;;;10.58;100.00
69153;BME280;56261;51.580;4.578;2023-04-12T11:56:23;100003.19;;;9.92;100.00
69153;BME280;56261;51.580;4.578;2023-04-12T11:58:49;100011.25;;;9.09;100.00
69153;BME280;56261;51.580;4.578;2023-04-12T12:01:16;100013.44;;;8.68;100.00
69153;BME280;56261;51.580;4.578;2023-04-12T12:03:43;100018.81;;;7.97;100.00
69153;BME280;56261;51.580;4.578;2023-04-12T12:06:09;99989.22;;;8.08;100.00
69153;BME280;56261;51.580;4.578;2023-04-12T12:08:35;99979.25;;;8.65;100.00
69153;BME280;56261;51.580;4.578;2023-04-12T12:11:01;99973.66;;;8.75;100.00
69153;BME280;56261;51.580;4.578;2023-04-12T12:13:51;99954.19;;;8.97;100.00
69153;BME280;56261;51.580;4.578;2023-04-12T12:16:22;99943.38;;;9.28;100.00
69153;BME280;56261;51.580;4.578;2023-04-12T12:18:48;99931.25;;;8.96;100.00
69153;BME280;56261;51.580;4.578;2023-04-12T12:21:14;99932.59;;;9.81;100.00
69153;BME280;56261;51.580;4.578;2023-04-12T12:23:44;99924.63;;;10.61;100.00
69153;BME280;56261;51.580;4.578;2023-04-12T12:26:21;99923.91;;;10.52;100.00
69153;BME280;56261;51.580;4.578;2023-04-12T12:28:54;99926.50;;;10.95;100.00
69153;BME280;56261;51.580;4.578;2023-04-12T12:31:22;99923.41;;;11.26;100.00
69153;BME280;56261;51.580;4.578;2023-04-12T12:33:52;99916.25;;;11.33;100.00
69153;BME280;56261;51.580;4.578;2023-04-12T12:36:18;99919.03;;;11.53;100.00
69153;BME280;56261;51.580;4.578;2023-04-12T12:38:45;99913.53;;;11.61;100.00
69153;BME280;56261;51.580;4.578;2023-04-12T12:43:45;99913.00;;;11.86;100.00
69153;BME280;56261;51.580;4.578;2023-04-12T12:46:11;99907.28;;;11.41;100.00
69153;BME280;56261;51.580;4.578;2023-04-12T12:48:40;99906.75;;;11.66;100.00
69153;BME280;56261;51.580;4.578;2023-04-12T12:51:07;99906.28;;;12.03;100.00
69153;BME280;56261;51.580;4.578;2023-04-12T12:53:37;99912.25;;;12.12;100.00
69153;BME280;56261;51.580;4.578;2023-04-12T12:56:03;99922.19;;;11.70;100.00
69153;BME280;56261;51.580;4.578;2023-04-12T12:58:29;99908.00;;;11.76;100.00
69153;BME280;56261;51.580;4.578;2023-04-12T13:00:55;99901.44;;;11.24;100.00
69153;BME280;56261;51.580;4.578;2023-04-12T13:03:20;99909.28;;;11.32;100.00
69153;BME280;56261;51.580;4.578;2023-04-12T13:05:46;99899.00;;;11.84;100.00
69153;BME280;56261;51.580;4.578;2023-04-12T13:08:11;99892.31;;;12.01;100.00
69153;BME280;56261;51.580;4.578;2023-04-12T13:10:37;99908.09;;;11.96;100.00
69153;BME280;56261;51.580;4.578;2023-04-12T13:13:02;99903.22;;;11.58;100.00
69153;BME280;56261;51.580;4.578;2023-04-12T13:15:28;99891.47;;;12.08;100.00
69153;BME280;56261;51.580;4.578;2023-04-12T13:17:54;99885.53;;;12.19;100.00
69153;BME280;56261;51.580;4.578;2023-04-12T13:20:20;99888.50;;;11.76;100.00